Pays
Station

 

Conditions  météo  pour  Pretoria Irene  -  Afrique Du Sud    Afrique Du Sud

  
19 °C
    
 
 

METAR pour Pretoria Irene :

FAIR 140634Z 04002KT CAVOK 19/02 Q1028

 

Voici le bulletin pour Pretoria Irene - Afrique Du Sud.
 
Le bulletin a été fait il y a 62 heures et 31 minutes, à 06:34 UTC .
Le vent soufflait à la vitesse de 1.0 mètres par seconde de Nord-est (040°).
 
La température était de 19 °C, avec un point de rosée à 2 °C.
La pression atmosphérique était de 1028 hPa.
L'humidité relative était de 32.1%.
 
Il y avait pas de nuages en-dessous de 1500 mètres et pas de cumulonimbus.
 
La visibilité globale était de supérieure à 10 kilomètres.
 

 
 
 

Pays :   A   B   C   D   E   F   G   H   I   J   K   L   M   N   O   P   Q   R   S   T   U   V   W   Y   Z

 

Partenaires :  Info Météo avec Met'info
Météo Marine avec MeteoMarine.net
Infos Site  |  Infos Légales  |  Crédits  |  Confidentialité
Contactez-nous  |  Ajouter aux favoris
© 2013-2018 METAR - Tous droits réservés